Terminal Aerodrome Forecast
Issued by NWS St Louis, MO

Home | Current Version | Previous Version | Text Only | Print | Product List | Glossary On
Versions: 1 2 3 4 5 6 7 8 9 10 11 12 13 14 15 16 17 18 19 20 21
000
FTUS43 KLSX 261700
TAFCOU
TAF
KCOU 261736Z 2618/2718 23012KT P6SM VCSH BKN100
      TEMPO 2618/2621 6SM -TSRA BKN060CB
     FM262200 21007KT P6SM BKN150
     FM270300 24008KT P6SM SKC
     FM271200 31008KT P6SM SCT040=

USA.gov is the U.S. government's official web portal to all federal, state and local government web resources and services.